Time;durP1;ratioP1;P1;durP2;ratioP2;P2;SDS_P1;SDS_P2;PMS_P1;PMS_P2;Temp;Humidity;BMP_temperature;BMP_pressure;BME280_temperature;BME280_humidity;BME280_pressure;Samples;Min_cycle;Max_cycle;Signal;HPM_P1;HPM_P2
2022/12/23 00:04:55;;;;;;;11.18;5.68;;;9.50;99.90;;;;;;10432231;28;20376;-62
2022/12/23 00:09:56;;;;;;;11.27;5.22;;;9.50;99.90;;;;;;10434872;28;20036;-62
2022/12/23 00:15:05;;;;;;;12.55;5.38;;;9.50;99.90;;;;;;10438686;28;20501;-62
2022/12/23 00:20:07;;;;;;;9.88;5.07;;;9.50;99.90;;;;;;10438682;28;20420;-62
2022/12/23 00:25:09;;;;;;;12.05;5.22;;;9.50;99.90;;;;;;10445007;28;20425;-62
2022/12/23 00:30:10;;;;;;;10.05;5.28;;;9.50;99.90;;;;;;10435812;28;20029;-63
2022/12/23 00:35:10;;;;;;;10.52;4.93;;;9.50;99.90;;;;;;10434204;28;20036;-62
2022/12/23 00:45:32;;;;;;;9.85;5.05;;;9.50;99.90;;;;;;10437576;28;20481;-63
2022/12/23 00:50:36;;;;;;;10.82;4.57;;;9.50;99.90;;;;;;10430956;28;20022;-63
2022/12/23 00:55:36;;;;;;;9.00;4.25;;;9.60;99.90;;;;;;10432302;28;20120;-64
2022/12/23 01:05:58;;;;;;;11.02;4.75;;;9.60;99.90;;;;;;10439059;28;20032;-63
2022/12/23 01:11:05;;;;;;;8.25;4.20;;;9.60;99.90;;;;;;10433408;28;20013;-68
2022/12/23 01:16:08;;;;;;;8.52;4.90;;;9.60;99.90;;;;;;10445374;28;20517;-63
2022/12/23 01:21:09;;;;;;;7.90;3.85;;;9.50;99.90;;;;;;10421340;28;20108;-61
2022/12/23 01:26:11;;;;;;;10.25;4.53;;;9.50;99.90;;;;;;10442178;28;20494;-61
2022/12/23 01:31:11;;;;;;;9.93;4.63;;;9.60;99.90;;;;;;10434220;28;20021;-62
2022/12/23 01:36:12;;;;;;;9.70;4.70;;;9.70;99.90;;;;;;10437822;28;20393;-62
2022/12/23 01:46:43;;;;;;;7.90;3.88;;;9.60;99.90;;;;;;10435647;28;20124;-61
2022/12/23 01:51:44;;;;;;;8.73;4.35;;;9.60;99.90;;;;;;10431268;28;20017;-62
2022/12/23 01:56:45;;;;;;;8.48;4.35;;;9.60;99.90;;;;;;10420025;28;20550;-61
2022/12/23 02:12:53;;;;;;;9.48;4.60;;;9.60;99.90;;;;;;10426238;28;20044;-62
2022/12/23 02:18:24;;;;;;;6.88;3.65;;;9.60;99.90;;;;;;10430321;28;20035;-63
2022/12/23 02:23:43;;;;;;;7.55;3.45;;;9.60;99.90;;;;;;10436739;28;20017;-62
2022/12/23 02:29:16;;;;;;;9.10;4.22;;;9.60;99.90;;;;;;10436159;28;20492;-62
2022/12/23 02:34:35;;;;;;;7.63;4.03;;;9.60;99.90;;;;;;10394559;28;20047;-61
2022/12/23 02:39:58;;;;;;;7.30;3.50;;;9.60;99.90;;;;;;10435259;28;20361;-61
2022/12/23 02:45:06;;;;;;;9.35;3.80;;;9.60;99.90;;;;;;10410106;28;20497;-61
2022/12/23 02:50:32;;;;;;;6.97;3.83;;;9.60;99.90;;;;;;10416207;28;20023;-62
2022/12/23 02:55:36;;;;;;;7.15;3.75;;;9.60;99.90;;;;;;10413741;28;20049;-62
2022/12/23 03:00:42;;;;;;;7.07;3.50;;;9.60;99.90;;;;;;10427718;28;20021;-63
2022/12/23 03:05:46;;;;;;;6.40;3.67;;;9.60;99.90;;;;;;10442863;28;20021;-62
2022/12/23 03:11:03;;;;;;;6.28;3.25;;;9.50;99.90;;;;;;10438261;28;20013;-62
2022/12/23 03:16:22;;;;;;;6.93;3.55;;;9.60;99.90;;;;;;10439055;28;20072;-62
2022/12/23 03:21:46;;;;;;;6.22;3.20;;;9.60;99.90;;;;;;10436672;28;20470;-61
2022/12/23 03:27:11;;;;;;;5.80;2.95;;;9.60;99.90;;;;;;10438464;28;20025;-62
2022/12/23 03:32:14;;;;;;;5.63;3.05;;;9.60;99.90;;;;;;10419136;28;20330;-61
2022/12/23 03:37:18;;;;;;;6.05;2.90;;;9.60;99.90;;;;;;10433562;28;20032;-62
2022/12/23 03:42:30;;;;;;;6.43;2.90;;;9.60;99.90;;;;;;10428743;28;20047;-63
2022/12/23 03:47:35;;;;;;;5.88;3.15;;;9.60;99.90;;;;;;10443615;28;20017;-62
2022/12/23 03:52:59;;;;;;;6.75;3.20;;;9.60;99.90;;;;;;10439400;28;20501;-63
2022/12/23 03:58:19;;;;;;;7.50;3.20;;;9.60;99.90;;;;;;10441551;28;20083;-63
2022/12/23 04:03:35;;;;;;;5.55;3.17;;;9.60;99.90;;;;;;10433209;28;20473;-63
2022/12/23 04:08:41;;;;;;;5.43;2.60;;;9.80;99.90;;;;;;10424846;28;20105;-63
2022/12/23 04:13:42;;;;;;;5.43;2.65;;;9.50;99.90;;;;;;10440196;28;20040;-64
2022/12/23 04:18:42;;;;;;;5.25;2.80;;;9.50;99.90;;;;;;10430492;28;20561;-63
2022/12/23 04:23:43;;;;;;;5.30;2.80;;;9.50;99.90;;;;;;10441367;28;20036;-65
2022/12/23 04:28:43;;;;;;;4.55;2.45;;;9.50;99.90;;;;;;10434052;28;20272;-64
2022/12/23 04:33:44;;;;;;;4.90;2.42;;;9.60;99.90;;;;;;10429977;28;20128;-64
2022/12/23 04:38:44;;;;;;;5.95;2.75;;;9.60;99.90;;;;;;10434706;28;20018;-65
2022/12/23 04:43:45;;;;;;;4.72;2.47;;;9.50;99.90;;;;;;10437252;28;20116;-65
2022/12/23 04:48:46;;;;;;;5.47;2.78;;;9.50;99.90;;;;;;10431500;28;20087;-64
2022/12/23 04:53:46;;;;;;;6.13;2.58;;;9.50;99.90;;;;;;10430156;28;20070;-66
2022/12/23 04:58:47;;;;;;;5.45;2.58;;;9.50;99.90;;;;;;10435026;28;20028;-62
2022/12/23 05:03:47;;;;;;;4.50;2.35;;;9.50;99.90;;;;;;10440759;28;20148;-62
2022/12/23 05:08:48;;;;;;;4.97;2.50;;;9.50;99.90;;;;;;10427607;28;20020;-61
2022/12/23 05:13:49;;;;;;;4.57;2.47;;;9.50;99.90;;;;;;10425049;28;20029;-61
2022/12/23 05:18:49;;;;;;;4.47;2.40;;;9.50;99.90;;;;;;10429715;28;20017;-62
2022/12/23 05:23:50;;;;;;;6.40;2.60;;;10.60;99.90;;;;;;10441106;28;20025;-63
2022/12/23 05:28:51;;;;;;;4.30;2.35;;;9.50;99.90;;;;;;10434911;28;20376;-63
2022/12/23 05:33:51;;;;;;;4.47;2.28;;;9.50;99.90;;;;;;10426453;28;20041;-63
2022/12/23 05:38:52;;;;;;;4.65;2.40;;;9.50;99.90;;;;;;10426621;28;20230;-63
2022/12/23 05:43:53;;;;;;;5.47;2.33;;;9.50;99.90;;;;;;10439508;28;20033;-63
2022/12/23 05:48:53;;;;;;;4.15;2.33;;;9.50;99.90;;;;;;10443034;28;20020;-62
2022/12/23 05:53:54;;;;;;;4.32;2.42;;;9.50;99.90;;;;;;10442632;28;20369;-62
2022/12/23 05:58:54;;;;;;;6.95;2.70;;;9.50;99.90;;;;;;10441760;28;20514;-63
2022/12/23 06:03:55;;;;;;;4.45;1.98;;;9.50;99.90;;;;;;10426514;28;20354;-63
2022/12/23 06:08:56;;;;;;;4.00;2.03;;;9.50;99.90;;;;;;10429998;28;20033;-65
2022/12/23 06:13:56;;;;;;;4.50;2.17;;;9.50;99.90;;;;;;10431163;28;20131;-63
2022/12/23 06:18:57;;;;;;;4.57;2.22;;;9.50;99.90;;;;;;10427969;28;20032;-66
2022/12/23 06:23:57;;;;;;;5.55;2.33;;;9.50;99.90;;;;;;10435423;28;20025;-65
2022/12/23 06:28:58;;;;;;;6.03;2.80;;;9.50;99.90;;;;;;10436854;28;20422;-62
2022/12/23 06:33:59;;;;;;;4.18;2.33;;;9.50;99.90;;;;;;10424059;28;20038;-63
2022/12/23 06:38:59;;;;;;;5.45;2.40;;;9.50;99.90;;;;;;10437695;28;20029;-65
2022/12/23 06:44:00;;;;;;;5.57;2.55;;;9.50;99.90;;;;;;10434181;28;20128;-64
2022/12/23 06:49:01;;;;;;;5.07;2.63;;;9.50;99.90;;;;;;10437551;28;20067;-63
2022/12/23 06:54:02;;;;;;;4.72;2.15;;;9.50;99.90;;;;;;10437491;28;20048;-63
2022/12/23 06:59:02;;;;;;;4.32;2.67;;;9.50;99.90;;;;;;10430488;28;20032;-62
2022/12/23 07:04:03;;;;;;;5.00;2.17;;;9.50;99.90;;;;;;10440064;28;20047;-62
2022/12/23 07:09:04;;;;;;;3.60;1.90;;;9.40;99.90;;;;;;10436041;28;20014;-61
2022/12/23 07:14:04;;;;;;;3.95;1.95;;;9.50;99.90;;;;;;10445504;28;20090;-62
2022/12/23 07:19:05;;;;;;;5.05;2.30;;;9.50;99.90;;;;;;10455175;28;20028;-63
2022/12/23 07:24:06;;;;;;;5.28;2.28;;;9.40;99.90;;;;;;10438414;28;20521;-63
2022/12/23 07:29:07;;;;;;;4.68;2.42;;;9.50;99.90;;;;;;10451041;28;20637;-62
2022/12/23 07:34:08;;;;;;;5.82;2.25;;;9.40;99.90;;;;;;10434644;28;20033;-63
2022/12/23 07:39:09;;;;;;;5.50;2.75;;;9.40;99.90;;;;;;10447506;28;20409;-63
2022/12/23 07:44:09;;;;;;;4.40;1.90;;;9.50;99.90;;;;;;10460865;28;20055;-64
2022/12/23 07:49:10;;;;;;;4.40;1.88;;;9.40;99.90;;;;;;10450398;28;20024;-63
2022/12/23 07:54:13;;;;;;;5.20;2.50;;;9.50;99.90;;;;;;10464015;28;20421;-64
2022/12/23 07:59:14;;;;;;;4.43;2.20;;;9.40;99.90;;;;;;10443462;28;20044;-63
2022/12/23 08:04:15;;;;;;;4.97;2.47;;;9.40;99.90;;;;;;10437421;28;20021;-63
2022/12/23 08:09:15;;;;;;;5.97;2.60;;;9.40;99.90;;;;;;10449091;28;20017;-63
2022/12/23 08:14:16;;;;;;;5.35;2.20;;;9.50;99.90;;;;;;10439138;28;20036;-62
2022/12/23 08:19:16;;;;;;;5.35;3.22;;;9.40;99.90;;;;;;10446730;28;20064;-64
2022/12/23 08:24:17;;;;;;;5.43;2.58;;;9.40;99.90;;;;;;10442571;28;20658;-63
2022/12/23 08:29:18;;;;;;;5.15;2.42;;;9.40;99.90;;;;;;10455350;28;20025;-66
2022/12/23 08:34:18;;;;;;;5.50;2.70;;;9.40;99.90;;;;;;10442731;28;20051;-64
2022/12/23 08:39:19;;;;;;;5.90;2.75;;;9.40;99.90;;;;;;10442180;28;20028;-63
2022/12/23 08:44:20;;;;;;;5.35;2.53;;;9.40;99.90;;;;;;10438892;28;20025;-63
2022/12/23 08:49:21;;;;;;;6.47;2.83;;;9.40;99.90;;;;;;10439692;28;20029;-63
2022/12/23 08:54:22;;;;;;;5.40;2.35;;;10.10;99.90;;;;;;10443282;28;20548;-70
2022/12/23 08:59:23;;;;;;;4.75;2.38;;;9.40;99.90;;;;;;10443672;28;20104;-63
2022/12/23 09:04:23;;;;;;;5.65;2.40;;;9.50;99.90;;;;;;10441895;28;20497;-63
2022/12/23 09:09:24;;;;;;;3.55;2.30;;;9.40;99.90;;;;;;10440785;28;20028;-64
2022/12/23 09:14:25;;;;;;;4.55;2.30;;;9.40;99.90;;;;;;10443777;28;20033;-64
2022/12/23 09:19:25;;;;;;;5.32;2.30;;;9.40;99.90;;;;;;10441358;28;20017;-63
2022/12/23 09:24:26;;;;;;;5.32;2.80;;;9.50;99.90;;;;;;10427789;28;20029;-63
2022/12/23 09:29:26;;;;;;;5.13;2.33;;;9.60;99.90;;;;;;10435602;28;20476;-64
2022/12/23 09:34:27;;;;;;;5.18;2.78;;;9.40;99.90;;;;;;10446442;28;20120;-64
2022/12/23 09:39:28;;;;;;;4.70;2.50;;;9.50;99.90;;;;;;10438466;28;20021;-64
2022/12/23 09:44:47;;;;;;;4.10;2.13;;;9.40;99.90;;;;;;10437785;28;20024;-64
2022/12/23 09:50:01;;;;;;;4.78;2.20;;;9.50;99.90;;;;;;10441668;28;20052;-63
2022/12/23 09:55:02;;;;;;;5.70;2.80;;;9.40;99.90;;;;;;10437242;28;20049;-63
2022/12/23 10:00:09;;;;;;;5.03;2.33;;;9.50;99.90;;;;;;10438643;28;20044;-63
2022/12/23 10:05:23;;;;;;;4.45;2.58;;;9.50;99.90;;;;;;10441376;28;20020;-63
2022/12/23 10:10:35;;;;;;;5.80;2.63;;;9.50;99.90;;;;;;10442003;28;20028;-65
2022/12/23 10:15:46;;;;;;;5.18;2.42;;;9.50;99.90;;;;;;10428938;28;20032;-65
2022/12/23 10:20:55;;;;;;;4.35;2.08;;;9.50;99.90;;;;;;10442390;28;20457;-63
2022/12/23 10:25:57;;;;;;;3.92;2.22;;;9.60;99.90;;;;;;10448080;28;20060;-65
2022/12/23 10:31:14;;;;;;;3.60;2.03;;;9.50;99.90;;;;;;10446764;28;20086;-65
2022/12/23 10:36:24;;;;;;;7.00;2.75;;;9.60;99.90;;;;;;10441070;28;21467;-70
2022/12/23 10:41:55;;;;;;;7.70;2.67;;;9.60;99.90;;;;;;10439570;28;20155;-66
2022/12/23 10:47:21;;;;;;;3.95;2.38;;;9.60;99.90;;;;;;10449574;28;20111;-69
2022/12/23 10:52:27;;;;;;;5.03;2.58;;;9.60;99.90;;;;;;10440518;28;20021;-66
2022/12/23 10:57:29;;;;;;;3.97;2.20;;;9.60;99.90;;;;;;10431713;28;20505;-64
2022/12/23 11:02:43;;;;;;;4.43;2.20;;;9.60;99.90;;;;;;10436566;28;20032;-66
2022/12/23 11:07:45;;;;;;;5.10;2.38;;;9.60;99.90;;;;;;10440183;28;20508;-65
2022/12/23 11:12:49;;;;;;;4.63;2.40;;;9.60;99.90;;;;;;10439154;28;20155;-66
2022/12/23 11:18:01;;;;;;;4.00;1.95;;;9.60;99.90;;;;;;10445049;28;20017;-70
2022/12/23 11:23:05;;;;;;;4.45;2.03;;;9.60;99.90;;;;;;10434079;28;20273;-66
2022/12/23 11:28:13;;;;;;;4.63;2.30;;;9.60;99.90;;;;;;10438351;28;20512;-65
2022/12/23 11:33:26;;;;;;;5.22;2.35;;;9.60;99.90;;;;;;10437421;28;20188;-68
2022/12/23 11:38:27;;;;;;;5.70;2.55;;;9.60;99.90;;;;;;10447176;28;20031;-64
2022/12/23 11:43:29;;;;;;;6.57;2.50;;;9.60;99.90;;;;;;10438313;28;20024;-64
2022/12/23 11:48:29;;;;;;;4.65;2.20;;;9.60;99.90;;;;;;10440174;28;20017;-65
2022/12/23 11:53:31;;;;;;;5.57;2.50;;;9.60;99.90;;;;;;10444879;28;20036;-65
2022/12/23 11:58:39;;;;;;;4.50;2.58;;;9.60;99.90;;;;;;10445789;28;20036;-64
2022/12/23 12:03:47;;;;;;;9.23;2.93;;;9.60;99.90;;;;;;10438637;28;20036;-64
2022/12/23 12:08:50;;;;;;;4.97;2.78;;;9.60;99.90;;;;;;10437496;28;20357;-65
2022/12/23 12:14:00;;;;;;;5.53;2.70;;;9.60;99.90;;;;;;10442726;28;20221;-68
2022/12/23 12:19:08;;;;;;;9.48;4.35;;;9.60;99.90;;;;;;10451605;28;20021;-70
2022/12/23 12:24:26;;;;;;;7.63;2.93;;;9.60;99.90;;;;;;10446616;28;20024;-69
2022/12/23 12:29:40;;;;;;;7.87;3.37;;;9.60;99.90;;;;;;10449952;28;20144;-65
2022/12/23 12:34:49;;;;;;;7.57;3.63;;;9.60;99.90;;;;;;10452291;28;20032;-65
2022/12/23 12:40:00;;;;;;;10.55;3.47;;;9.60;99.90;;;;;;10438813;28;20097;-63
2022/12/23 12:45:31;;;;;;;6.57;3.30;;;9.60;99.90;;;;;;10441595;28;20032;-64
2022/12/23 12:50:42;;;;;;;8.57;3.47;;;9.60;99.90;;;;;;10453157;28;20048;-63
2022/12/23 12:55:49;;;;;;;9.23;3.65;;;9.60;99.90;;;;;;10444489;28;20117;-62
2022/12/23 13:01:01;;;;;;;8.63;3.95;;;9.60;99.90;;;;;;10449496;28;20377;-67
2022/12/23 13:06:41;;;;;;;10.90;4.30;;;9.60;99.90;;;;;;10451880;28;20029;-62
2022/12/23 13:11:58;;;;;;;9.52;4.03;;;9.60;99.90;;;;;;10453927;28;20082;-63
2022/12/23 13:17:18;;;;;;;11.35;4.35;;;9.60;99.90;;;;;;10449657;28;20047;-62
2022/12/23 13:22:29;;;;;;;8.52;3.80;;;9.60;99.90;;;;;;10459287;28;20063;-65
2022/12/23 13:28:02;;;;;;;12.48;3.85;;;9.60;99.90;;;;;;10439323;28;20100;-62
2022/12/23 13:33:04;;;;;;;8.07;3.70;;;9.60;99.90;;;;;;10445930;28;20028;-62
2022/12/23 13:38:16;;;;;;;10.75;3.85;;;9.60;99.90;;;;;;10438105;28;20112;-62
2022/12/23 13:43:23;;;;;;;12.23;4.57;;;9.60;99.90;;;;;;10445560;28;20078;-62
2022/12/23 13:48:35;;;;;;;10.65;4.10;;;9.60;99.90;;;;;;10441358;28;20724;-62
2022/12/23 13:53:54;;;;;;;12.45;4.70;;;9.60;99.90;;;;;;10439441;28;20044;-63
2022/12/23 13:58:55;;;;;;;10.95;4.25;;;9.60;99.90;;;;;;10436325;28;20644;-62
2022/12/23 14:04:16;;;;;;;12.68;4.43;;;9.60;99.90;;;;;;10440431;28;20473;-70
2022/12/23 14:09:28;;;;;;;9.32;3.70;;;9.60;99.90;;;;;;10438690;28;20273;-65
2022/12/23 14:14:29;;;;;;;8.68;3.55;;;9.60;99.90;;;;;;10453039;28;20396;-70
2022/12/23 14:19:57;;;;;;;8.10;4.15;;;9.60;99.90;;;;;;10448686;28;20020;-68
2022/12/23 14:25:19;;;;;;;11.35;4.72;;;9.60;99.90;;;;;;10435697;28;20096;-66
2022/12/23 14:30:33;;;;;;;6.97;3.25;;;9.60;99.90;;;;;;10445339;28;20025;-66
2022/12/23 14:35:46;;;;;;;8.77;3.58;;;9.60;99.90;;;;;;10442179;28;20075;-69
2022/12/23 14:40:53;;;;;;;10.90;4.10;;;9.60;99.90;;;;;;10441163;28;20108;-70
2022/12/23 14:46:47;;;;;;;7.55;3.65;;;9.60;99.90;;;;;;10437354;28;20040;-65
2022/12/23 14:51:51;;;;;;;10.13;3.70;;;9.70;99.90;;;;;;10427537;28;20473;-73
2022/12/23 14:57:06;;;;;;;8.38;3.50;;;9.70;99.90;;;;;;10434352;28;20041;-67
2022/12/23 15:02:25;;;;;;;8.30;3.25;;;9.80;99.90;;;;;;10430023;28;20021;-70
2022/12/23 15:07:51;;;;;;;9.20;3.65;;;9.80;99.90;;;;;;10431605;28;20074;-65
2022/12/23 15:12:55;;;;;;;6.57;3.10;;;9.80;99.90;;;;;;10415913;28;20083;-67
2022/12/23 15:18:05;;;;;;;8.00;2.85;;;9.70;99.90;;;;;;10432250;28;20488;-69
2022/12/23 15:23:13;;;;;;;8.07;3.28;;;9.80;99.90;;;;;;10421972;28;20025;-66
2022/12/23 15:28:25;;;;;;;5.18;2.63;;;9.80;99.90;;;;;;10427854;28;20097;-72
2022/12/23 15:33:29;;;;;;;6.88;2.65;;;9.80;99.90;;;;;;10421834;28;20045;-70
2022/12/23 15:38:34;;;;;;;9.02;3.22;;;9.80;99.90;;;;;;10443471;28;20019;-72
2022/12/23 15:43:40;;;;;;;7.13;2.70;;;9.80;99.90;;;;;;10435736;28;20030;-71
2022/12/23 15:48:41;;;;;;;6.63;3.30;;;10.00;99.90;;;;;;10445596;28;20067;-69
2022/12/23 15:53:46;;;;;;;7.00;2.50;;;9.80;99.90;;;;;;10448447;28;20075;-65
2022/12/23 15:58:47;;;;;;;5.80;2.33;;;9.80;99.90;;;;;;10445763;28;20439;-72
2022/12/23 16:03:56;;;;;;;6.05;2.70;;;9.80;99.90;;;;;;10437764;28;20025;-68
2022/12/23 16:08:57;;;;;;;5.45;2.30;;;10.30;99.90;;;;;;10435545;28;20025;-73
2022/12/23 16:14:00;;;;;;;6.32;2.55;;;9.80;99.90;;;;;;10438246;28;20220;-66
2022/12/23 16:19:01;;;;;;;5.22;2.60;;;9.80;99.90;;;;;;10450714;28;20464;-64
2022/12/23 16:24:07;;;;;;;4.32;2.40;;;9.80;99.90;;;;;;10449240;28;20088;-66
2022/12/23 16:29:09;;;;;;;6.10;2.53;;;9.80;99.90;;;;;;10448317;28;20017;-73
2022/12/23 16:34:29;;;;;;;5.43;2.30;;;9.80;99.90;;;;;;10437094;28;20056;-68
2022/12/23 16:39:31;;;;;;;4.57;2.08;;;9.80;99.90;;;;;;10434065;28;20024;-69
2022/12/23 16:44:31;;;;;;;5.13;2.40;;;9.80;99.90;;;;;;10444705;28;20144;-67
2022/12/23 16:49:34;;;;;;;4.57;2.45;;;9.80;99.90;;;;;;10439211;28;20013;-67
2022/12/23 16:54:41;;;;;;;5.80;2.27;;;9.80;99.90;;;;;;10440027;28;20025;-67
2022/12/23 16:59:42;;;;;;;5.47;2.38;;;9.80;99.90;;;;;;10435039;28;20319;-68
2022/12/23 17:04:42;;;;;;;4.57;2.15;;;9.80;99.90;;;;;;10439737;28;20495;-68
2022/12/23 17:09:43;;;;;;;5.40;2.85;;;9.80;99.90;;;;;;10436176;28;20527;-67
2022/12/23 17:14:43;;;;;;;5.75;2.70;;;9.90;99.90;;;;;;10445820;28;20029;-75
2022/12/23 17:19:44;;;;;;;5.80;2.67;;;9.70;99.90;;;;;;10451569;28;20139;-68
2022/12/23 17:24:45;;;;;;;6.28;3.13;;;9.70;99.90;;;;;;10435955;28;20021;-68
2022/12/23 17:29:45;;;;;;;6.35;3.00;;;9.70;99.90;;;;;;10444160;28;20016;-65
2022/12/23 17:34:46;;;;;;;6.97;3.42;;;9.70;99.90;;;;;;10439404;28;20029;-67
2022/12/23 17:39:47;;;;;;;10.32;3.95;;;9.70;99.90;;;;;;10441199;28;20013;-74
2022/12/23 17:44:47;;;;;;;6.82;3.28;;;10.20;99.90;;;;;;10445495;28;20025;-71
2022/12/23 17:49:49;;;;;;;6.55;3.35;;;10.30;99.90;;;;;;10446192;28;20369;-71
2022/12/23 17:54:50;;;;;;;8.15;3.25;;;10.20;99.90;;;;;;10926618;22;20378;-72
2022/12/23 17:59:52;;;;;;;6.80;3.35;;;10.10;99.90;;;;;;10442367;28;20045;-73
2022/12/23 18:04:53;;;;;;;6.18;3.35;;;10.10;99.90;;;;;;10445139;28;20244;-69
2022/12/23 18:09:53;;;;;;;6.03;3.08;;;10.00;99.90;;;;;;10430106;28;20031;-66
2022/12/23 18:14:54;;;;;;;6.57;3.03;;;10.00;99.90;;;;;;10448879;28;20036;-68
2022/12/23 18:19:55;;;;;;;6.15;3.22;;;10.00;99.90;;;;;;10443192;28;20054;-66
2022/12/23 18:24:56;;;;;;;5.53;2.60;;;9.90;99.90;;;;;;10445627;28;20037;-71
2022/12/23 18:29:57;;;;;;;7.20;2.92;;;9.90;99.90;;;;;;10441117;28;20071;-68
2022/12/23 18:34:58;;;;;;;7.35;3.30;;;9.90;99.90;;;;;;10409767;28;20078;-71
2022/12/23 18:39:58;;;;;;;6.72;3.33;;;9.90;99.90;;;;;;10443715;28;20108;-68
2022/12/23 18:44:59;;;;;;;6.10;3.10;;;10.00;99.90;;;;;;10441869;28;20021;-70
2022/12/23 18:49:59;;;;;;;7.03;3.03;;;9.90;99.90;;;;;;10443272;28;20112;-70
2022/12/23 18:55:00;;;;;;;5.90;3.00;;;9.90;99.90;;;;;;10434896;28;20049;-64
2022/12/23 19:00:02;;;;;;;7.25;3.50;;;9.90;99.90;;;;;;10433671;28;20397;-65
2022/12/23 19:05:03;;;;;;;7.47;2.95;;;9.90;99.90;;;;;;10440936;28;20060;-65
2022/12/23 19:10:05;;;;;;;6.60;3.40;;;9.80;99.90;;;;;;10429449;28;20036;-66
2022/12/23 19:15:06;;;;;;;6.57;2.85;;;9.80;99.90;;;;;;10440546;28;20041;-67
2022/12/23 19:20:10;;;;;;;5.93;2.72;;;9.80;99.90;;;;;;10457069;28;20048;-74
2022/12/23 19:25:13;;;;;;;6.38;3.10;;;9.80;99.90;;;;;;10461681;28;20056;-73
2022/12/23 19:30:16;;;;;;;5.95;3.05;;;9.80;99.90;;;;;;10447802;28;20025;-69
2022/12/23 19:35:17;;;;;;;5.43;2.55;;;9.80;99.90;;;;;;10446744;28;20098;-65
2022/12/23 19:40:18;;;;;;;6.82;3.00;;;9.80;99.90;;;;;;10455142;28;20249;-66
2022/12/23 19:45:18;;;;;;;6.00;2.97;;;9.80;99.90;;;;;;10450503;28;20021;-68
2022/12/23 19:50:21;;;;;;;5.20;2.92;;;9.80;99.90;;;;;;10443347;28;20028;-67
2022/12/23 19:55:21;;;;;;;6.45;2.90;;;10.90;99.90;;;;;;10440735;28;20562;-72
2022/12/23 20:00:22;;;;;;;5.50;2.88;;;9.80;99.90;;;;;;10444291;28;20070;-68
2022/12/23 20:05:22;;;;;;;7.20;3.45;;;9.80;99.90;;;;;;10456546;28;20463;-64
2022/12/23 20:10:24;;;;;;;5.57;3.28;;;9.80;99.90;;;;;;10446755;28;20567;-64
2022/12/23 20:15:25;;;;;;;6.43;3.28;;;9.80;99.90;;;;;;10437926;28;20025;-64
2022/12/23 20:20:25;;;;;;;5.43;3.05;;;9.80;99.90;;;;;;10439966;28;20469;-63
2022/12/23 20:25:26;;;;;;;4.68;2.53;;;9.80;99.90;;;;;;10446266;28;20383;-69
2022/12/23 20:30:26;;;;;;;5.80;3.00;;;9.70;99.90;;;;;;10437572;28;20029;-71
2022/12/23 20:35:29;;;;;;;6.07;3.15;;;9.70;99.90;;;;;;10446797;28;20025;-66
2022/12/23 20:40:30;;;;;;;5.15;2.65;;;9.70;99.90;;;;;;10445126;28;20464;-65
2022/12/23 20:45:30;;;;;;;5.35;2.50;;;9.80;99.90;;;;;;10448497;28;20056;-64
2022/12/23 20:50:31;;;;;;;4.80;2.83;;;9.70;99.90;;;;;;10442436;28;20017;-63
2022/12/23 20:55:32;;;;;;;5.10;2.75;;;9.70;99.90;;;;;;10432915;28;20033;-69
2022/12/23 21:00:33;;;;;;;5.32;2.70;;;9.70;99.90;;;;;;10434230;28;20446;-63
2022/12/23 21:05:33;;;;;;;5.05;2.58;;;9.70;99.90;;;;;;10441876;28;20116;-66
2022/12/23 21:10:34;;;;;;;4.30;2.38;;;9.70;99.90;;;;;;10424792;28;20032;-71
2022/12/23 21:15:35;;;;;;;4.60;2.58;;;9.70;99.90;;;;;;10428254;28;20124;-68
2022/12/23 21:20:36;;;;;;;4.28;2.42;;;9.70;99.90;;;;;;10437359;28;20461;-67
2022/12/23 21:25:37;;;;;;;5.05;2.83;;;9.70;99.90;;;;;;10432341;28;20425;-70
2022/12/23 21:30:37;;;;;;;5.38;2.60;;;9.70;99.90;;;;;;10421256;28;20025;-69
2022/12/23 21:35:38;;;;;;;6.22;2.83;;;9.70;99.90;;;;;;10432568;28;20037;-70
2022/12/23 21:40:38;;;;;;;4.25;2.38;;;9.70;99.90;;;;;;10415506;28;20029;-63
2022/12/23 21:45:39;;;;;;;4.05;2.42;;;9.70;99.90;;;;;;10427648;28;20533;-70
2022/12/23 21:50:39;;;;;;;4.30;2.50;;;9.70;99.90;;;;;;10429093;28;20033;-63
2022/12/23 21:55:40;;;;;;;3.75;2.45;;;9.70;99.90;;;;;;10427884;28;20265;-67
2022/12/23 22:00:44;;;;;;;4.55;2.75;;;9.70;99.90;;;;;;10429032;28;20470;-66
2022/12/23 22:05:44;;;;;;;4.18;2.75;;;9.70;99.90;;;;;;10427126;28;20025;-71
2022/12/23 22:10:46;;;;;;;4.30;2.60;;;9.70;99.90;;;;;;10430458;28;20021;-65
2022/12/23 22:15:46;;;;;;;3.80;2.47;;;9.70;99.90;;;;;;10428277;28;20401;-65
2022/12/23 22:20:47;;;;;;;5.40;2.88;;;9.70;99.90;;;;;;10424676;28;20021;-68
2022/12/23 22:25:52;;;;;;;5.80;2.78;;;9.70;99.90;;;;;;10449242;28;20163;-67
2022/12/23 22:31:19;;;;;;;5.60;2.80;;;9.70;99.90;;;;;;10426752;28;20029;-67
2022/12/23 22:36:20;;;;;;;5.30;2.83;;;9.70;99.90;;;;;;10411477;28;20084;-65
2022/12/23 22:41:22;;;;;;;4.30;2.60;;;10.60;99.90;;;;;;10443666;28;20238;-70
2022/12/23 22:46:23;;;;;;;4.63;2.83;;;9.70;99.90;;;;;;10429929;28;20508;-64
2022/12/23 22:51:26;;;;;;;4.57;2.72;;;9.70;99.90;;;;;;10434893;28;20021;-67
2022/12/23 22:56:27;;;;;;;4.55;2.65;;;9.70;99.90;;;;;;10427501;28;20402;-65
2022/12/23 23:01:30;;;;;;;4.40;2.70;;;9.70;99.90;;;;;;10440872;28;20025;-64
2022/12/23 23:06:36;;;;;;;6.05;2.95;;;9.70;99.90;;;;;;10434560;28;20231;-65
2022/12/23 23:11:39;;;;;;;4.10;2.60;;;9.70;99.90;;;;;;10433161;28;20066;-65
2022/12/23 23:16:39;;;;;;;5.22;2.78;;;9.70;99.90;;;;;;10435651;28;20442;-69
2022/12/23 23:21:40;;;;;;;3.95;2.55;;;9.70;99.90;;;;;;10440648;28;20160;-67
2022/12/23 23:26:41;;;;;;;4.75;2.85;;;9.70;99.90;;;;;;10435108;28;20066;-66
2022/12/23 23:31:41;;;;;;;5.00;2.90;;;9.70;99.90;;;;;;10442124;28;20016;-64
2022/12/23 23:36:42;;;;;;;4.40;2.60;;;9.70;99.90;;;;;;10433911;28;20040;-68
2022/12/23 23:41:43;;;;;;;4.88;2.28;;;9.80;99.90;;;;;;10436934;28;20095;-71
2022/12/23 23:46:45;;;;;;;5.57;3.03;;;9.70;99.90;;;;;;10433207;28;20416;-67
2022/12/23 23:51:45;;;;;;;4.15;2.38;;;9.70;99.90;;;;;;10440612;28;20035;-65
2022/12/23 23:56:46;;;;;;;4.10;2.63;;;9.80;99.90;;;;;;10438651;28;20078;-64
